sensor_id;sensor_type;location;lat;lon;timestamp;P1;durP1;ratioP1;P2;durP2;ratioP2
61911;SDS011;49973;52.084;5.412;2023-03-16T00:00:49;4.30;;;2.70;;
61911;SDS011;49973;52.084;5.412;2023-03-16T00:03:18;3.30;;;2.33;;
61911;SDS011;49973;52.084;5.412;2023-03-16T00:05:47;4.00;;;2.83;;
61911;SDS011;49973;52.084;5.412;2023-03-16T00:08:18;2.53;;;2.30;;
61911;SDS011;49973;52.084;5.412;2023-03-16T00:10:48;5.07;;;2.83;;
61911;SDS011;49973;52.084;5.412;2023-03-16T00:13:20;7.33;;;2.47;;
61911;SDS011;49973;52.084;5.412;2023-03-16T00:15:50;5.20;;;2.70;;
61911;SDS011;49973;52.084;5.412;2023-03-16T00:18:20;4.73;;;3.03;;
61911;SDS011;49973;52.084;5.412;2023-03-16T00:20:53;5.20;;;2.90;;
61911;SDS011;49973;52.084;5.412;2023-03-16T00:23:24;4.10;;;2.87;;
61911;SDS011;49973;52.084;5.412;2023-03-16T00:25:55;7.20;;;2.83;;
61911;SDS011;49973;52.084;5.412;2023-03-16T00:28:26;3.80;;;3.13;;
61911;SDS011;49973;52.084;5.412;2023-03-16T00:30:55;7.57;;;3.50;;
61911;SDS011;49973;52.084;5.412;2023-03-16T00:33:25;4.97;;;3.37;;
61911;SDS011;49973;52.084;5.412;2023-03-16T00:35:53;8.43;;;2.77;;
61911;SDS011;49973;52.084;5.412;2023-03-16T00:38:28;5.83;;;3.27;;
61911;SDS011;49973;52.084;5.412;2023-03-16T00:41:00;4.30;;;3.07;;
61911;SDS011;49973;52.084;5.412;2023-03-16T00:43:30;4.97;;;3.30;;
61911;SDS011;49973;52.084;5.412;2023-03-16T00:46:07;5.70;;;3.50;;
61911;SDS011;49973;52.084;5.412;2023-03-16T00:48:38;7.17;;;3.33;;
61911;SDS011;49973;52.084;5.412;2023-03-16T00:51:09;6.20;;;3.10;;
61911;SDS011;49973;52.084;5.412;2023-03-16T00:53:40;7.53;;;3.87;;
61911;SDS011;49973;52.084;5.412;2023-03-16T00:56:12;5.30;;;3.57;;
61911;SDS011;49973;52.084;5.412;2023-03-16T00:58:41;7.57;;;3.23;;
61911;SDS011;49973;52.084;5.412;2023-03-16T01:01:11;3.53;;;2.90;;
61911;SDS011;49973;52.084;5.412;2023-03-16T01:03:40;4.87;;;3.67;;
61911;SDS011;49973;52.084;5.412;2023-03-16T01:06:10;7.20;;;3.57;;
61911;SDS011;49973;52.084;5.412;2023-03-16T01:08:41;5.90;;;3.80;;
61911;SDS011;49973;52.084;5.412;2023-03-16T01:11:13;5.53;;;3.37;;
61911;SDS011;49973;52.084;5.412;2023-03-16T01:13:43;7.87;;;3.73;;
61911;SDS011;49973;52.084;5.412;2023-03-16T01:16:13;5.53;;;3.80;;
61911;SDS011;49973;52.084;5.412;2023-03-16T01:18:44;7.57;;;4.20;;
61911;SDS011;49973;52.084;5.412;2023-03-16T01:21:13;7.93;;;3.77;;
61911;SDS011;49973;52.084;5.412;2023-03-16T01:23:42;7.23;;;3.97;;
61911;SDS011;49973;52.084;5.412;2023-03-16T01:26:12;8.13;;;3.87;;
61911;SDS011;49973;52.084;5.412;2023-03-16T01:28:43;14.20;;;4.47;;
61911;SDS011;49973;52.084;5.412;2023-03-16T01:31:12;5.33;;;3.80;;
61911;SDS011;49973;52.084;5.412;2023-03-16T01:33:42;5.30;;;3.37;;
61911;SDS011;49973;52.084;5.412;2023-03-16T01:36:16;6.17;;;4.00;;
61911;SDS011;49973;52.084;5.412;2023-03-16T01:38:52;4.90;;;3.63;;
61911;SDS011;49973;52.084;5.412;2023-03-16T01:41:25;5.03;;;3.43;;
61911;SDS011;49973;52.084;5.412;2023-03-16T01:43:54;6.87;;;4.13;;
61911;SDS011;49973;52.084;5.412;2023-03-16T01:46:25;9.80;;;4.10;;
61911;SDS011;49973;52.084;5.412;2023-03-16T01:48:57;5.53;;;4.10;;
61911;SDS011;49973;52.084;5.412;2023-03-16T01:51:36;5.30;;;3.23;;
61911;SDS011;49973;52.084;5.412;2023-03-16T01:54:10;9.17;;;4.30;;
61911;SDS011;49973;52.084;5.412;2023-03-16T01:56:47;7.77;;;4.77;;
61911;SDS011;49973;52.084;5.412;2023-03-16T01:59:22;5.77;;;3.67;;
61911;SDS011;49973;52.084;5.412;2023-03-16T02:01:54;10.07;;;3.93;;
61911;SDS011;49973;52.084;5.412;2023-03-16T02:04:30;6.20;;;4.47;;
61911;SDS011;49973;52.084;5.412;2023-03-16T02:07:06;5.77;;;3.43;;
61911;SDS011;49973;52.084;5.412;2023-03-16T02:09:36;5.57;;;3.97;;
61911;SDS011;49973;52.084;5.412;2023-03-16T02:12:11;5.07;;;3.83;;
61911;SDS011;49973;52.084;5.412;2023-03-16T02:14:48;6.63;;;3.97;;
61911;SDS011;49973;52.084;5.412;2023-03-16T02:17:19;6.80;;;4.37;;
61911;SDS011;49973;52.084;5.412;2023-03-16T02:19:52;5.13;;;3.50;;
61911;SDS011;49973;52.084;5.412;2023-03-16T02:22:35;4.97;;;3.87;;
61911;SDS011;49973;52.084;5.412;2023-03-16T02:25:08;7.60;;;4.37;;
61911;SDS011;49973;52.084;5.412;2023-03-16T02:27:41;5.70;;;4.00;;
61911;SDS011;49973;52.084;5.412;2023-03-16T02:30:19;5.80;;;3.63;;
61911;SDS011;49973;52.084;5.412;2023-03-16T02:32:56;6.57;;;3.80;;
61911;SDS011;49973;52.084;5.412;2023-03-16T02:35:25;6.50;;;3.97;;
61911;SDS011;49973;52.084;5.412;2023-03-16T02:37:54;6.07;;;4.13;;
61911;SDS011;49973;52.084;5.412;2023-03-16T02:40:28;9.30;;;4.40;;
61911;SDS011;49973;52.084;5.412;2023-03-16T02:43:04;4.63;;;3.40;;
61911;SDS011;49973;52.084;5.412;2023-03-16T02:45:42;4.77;;;3.10;;
61911;SDS011;49973;52.084;5.412;2023-03-16T02:48:20;8.97;;;4.13;;
61911;SDS011;49973;52.084;5.412;2023-03-16T02:50:52;7.00;;;3.40;;
61911;SDS011;49973;52.084;5.412;2023-03-16T02:53:22;9.13;;;3.80;;
61911;SDS011;49973;52.084;5.412;2023-03-16T02:55:51;6.40;;;4.03;;
61911;SDS011;49973;52.084;5.412;2023-03-16T02:58:20;6.13;;;3.63;;
61911;SDS011;49973;52.084;5.412;2023-03-16T03:00:50;6.10;;;4.17;;
61911;SDS011;49973;52.084;5.412;2023-03-16T03:03:19;4.97;;;3.93;;
61911;SDS011;49973;52.084;5.412;2023-03-16T03:05:47;6.60;;;4.03;;
61911;SDS011;49973;52.084;5.412;2023-03-16T03:08:15;6.07;;;3.50;;
61911;SDS011;49973;52.084;5.412;2023-03-16T03:10:46;10.23;;;4.53;;
61911;SDS011;49973;52.084;5.412;2023-03-16T03:13:15;9.67;;;3.70;;
61911;SDS011;49973;52.084;5.412;2023-03-16T03:15:43;5.93;;;3.60;;
61911;SDS011;49973;52.084;5.412;2023-03-16T03:18:13;7.30;;;4.20;;
61911;SDS011;49973;52.084;5.412;2023-03-16T03:20:42;5.63;;;3.87;;
61911;SDS011;49973;52.084;5.412;2023-03-16T03:23:11;5.90;;;3.63;;
61911;SDS011;49973;52.084;5.412;2023-03-16T03:25:41;8.47;;;4.10;;
61911;SDS011;49973;52.084;5.412;2023-03-16T03:28:12;7.87;;;4.07;;
61911;SDS011;49973;52.084;5.412;2023-03-16T03:30:41;8.30;;;3.90;;
61911;SDS011;49973;52.084;5.412;2023-03-16T03:33:10;8.40;;;3.80;;
61911;SDS011;49973;52.084;5.412;2023-03-16T03:35:40;6.63;;;3.97;;
61911;SDS011;49973;52.084;5.412;2023-03-16T03:38:09;7.90;;;4.13;;
61911;SDS011;49973;52.084;5.412;2023-03-16T03:40:42;6.37;;;4.17;;
61911;SDS011;49973;52.084;5.412;2023-03-16T03:43:13;7.20;;;4.17;;
61911;SDS011;49973;52.084;5.412;2023-03-16T03:45:43;8.97;;;3.97;;
61911;SDS011;49973;52.084;5.412;2023-03-16T03:48:12;9.13;;;3.97;;
61911;SDS011;49973;52.084;5.412;2023-03-16T03:50:42;7.63;;;4.03;;
61911;SDS011;49973;52.084;5.412;2023-03-16T03:53:29;9.63;;;4.73;;
61911;SDS011;49973;52.084;5.412;2023-03-16T03:56:30;7.60;;;4.10;;
61911;SDS011;49973;52.084;5.412;2023-03-16T03:58:59;5.90;;;3.90;;
61911;SDS011;49973;52.084;5.412;2023-03-16T04:01:54;8.00;;;3.60;;
61911;SDS011;49973;52.084;5.412;2023-03-16T04:04:26;6.63;;;4.47;;
61911;SDS011;49973;52.084;5.412;2023-03-16T04:06:56;8.57;;;4.50;;
61911;SDS011;49973;52.084;5.412;2023-03-16T04:09:25;6.43;;;4.13;;
61911;SDS011;49973;52.084;5.412;2023-03-16T04:11:54;7.83;;;4.57;;
61911;SDS011;49973;52.084;5.412;2023-03-16T04:14:24;9.20;;;4.63;;
61911;SDS011;49973;52.084;5.412;2023-03-16T04:16:53;8.13;;;4.40;;
61911;SDS011;49973;52.084;5.412;2023-03-16T04:19:22;5.07;;;3.60;;
61911;SDS011;49973;52.084;5.412;2023-03-16T04:21:53;4.27;;;3.50;;
61911;SDS011;49973;52.084;5.412;2023-03-16T04:24:24;8.30;;;3.83;;
61911;SDS011;49973;52.084;5.412;2023-03-16T04:26:53;6.40;;;4.67;;
61911;SDS011;49973;52.084;5.412;2023-03-16T04:29:22;6.37;;;4.07;;
61911;SDS011;49973;52.084;5.412;2023-03-16T04:31:51;7.73;;;4.23;;
61911;SDS011;49973;52.084;5.412;2023-03-16T04:34:22;5.53;;;3.97;;
61911;SDS011;49973;52.084;5.412;2023-03-16T04:36:55;7.17;;;4.43;;
61911;SDS011;49973;52.084;5.412;2023-03-16T04:39:25;6.57;;;4.23;;
61911;SDS011;49973;52.084;5.412;2023-03-16T04:41:54;9.47;;;4.37;;
61911;SDS011;49973;52.084;5.412;2023-03-16T04:44:25;8.33;;;4.23;;
61911;SDS011;49973;52.084;5.412;2023-03-16T04:46:53;6.93;;;4.40;;
61911;SDS011;49973;52.084;5.412;2023-03-16T04:49:24;8.43;;;4.13;;
61911;SDS011;49973;52.084;5.412;2023-03-16T04:51:53;5.70;;;4.03;;
61911;SDS011;49973;52.084;5.412;2023-03-16T04:54:21;5.30;;;4.07;;
61911;SDS011;49973;52.084;5.412;2023-03-16T04:56:51;8.13;;;4.17;;
61911;SDS011;49973;52.084;5.412;2023-03-16T04:59:38;6.43;;;3.50;;
61911;SDS011;49973;52.084;5.412;2023-03-16T05:02:36;3.93;;;3.47;;
61911;SDS011;49973;52.084;5.412;2023-03-16T05:05:05;6.87;;;4.27;;
61911;SDS011;49973;52.084;5.412;2023-03-16T05:07:40;5.60;;;3.70;;
61911;SDS011;49973;52.084;5.412;2023-03-16T05:10:08;6.97;;;4.20;;
61911;SDS011;49973;52.084;5.412;2023-03-16T05:12:40;6.87;;;3.87;;
61911;SDS011;49973;52.084;5.412;2023-03-16T05:15:10;9.10;;;4.87;;
61911;SDS011;49973;52.084;5.412;2023-03-16T05:17:41;8.73;;;4.00;;
61911;SDS011;49973;52.084;5.412;2023-03-16T05:20:14;4.90;;;3.47;;
61911;SDS011;49973;52.084;5.412;2023-03-16T05:22:49;8.20;;;3.70;;
61911;SDS011;49973;52.084;5.412;2023-03-16T05:25:38;7.27;;;3.70;;
61911;SDS011;49973;52.084;5.412;2023-03-16T05:28:10;9.63;;;3.87;;
61911;SDS011;49973;52.084;5.412;2023-03-16T05:30:45;6.23;;;3.90;;
61911;SDS011;49973;52.084;5.412;2023-03-16T05:33:19;6.77;;;3.60;;
61911;SDS011;49973;52.084;5.412;2023-03-16T05:35:52;6.73;;;3.97;;
61911;SDS011;49973;52.084;5.412;2023-03-16T05:38:21;7.57;;;4.20;;
61911;SDS011;49973;52.084;5.412;2023-03-16T05:40:50;9.83;;;4.27;;
61911;SDS011;49973;52.084;5.412;2023-03-16T05:43:37;6.33;;;3.77;;
61911;SDS011;49973;52.084;5.412;2023-03-16T05:46:06;6.70;;;3.60;;
61911;SDS011;49973;52.084;5.412;2023-03-16T05:48:35;6.20;;;3.83;;
61911;SDS011;49973;52.084;5.412;2023-03-16T05:51:05;8.63;;;3.80;;
61911;SDS011;49973;52.084;5.412;2023-03-16T05:53:34;7.50;;;4.07;;
61911;SDS011;49973;52.084;5.412;2023-03-16T05:56:13;7.93;;;4.10;;
61911;SDS011;49973;52.084;5.412;2023-03-16T05:58:45;5.10;;;3.30;;
61911;SDS011;49973;52.084;5.412;2023-03-16T06:01:14;6.17;;;3.50;;
61911;SDS011;49973;52.084;5.412;2023-03-16T06:03:43;9.17;;;3.70;;
61911;SDS011;49973;52.084;5.412;2023-03-16T06:06:17;6.60;;;3.90;;
61911;SDS011;49973;52.084;5.412;2023-03-16T06:09:03;8.73;;;3.93;;
61911;SDS011;49973;52.084;5.412;2023-03-16T06:11:32;6.07;;;4.00;;
61911;SDS011;49973;52.084;5.412;2023-03-16T06:14:02;7.00;;;3.57;;
61911;SDS011;49973;52.084;5.412;2023-03-16T06:16:30;5.40;;;3.27;;
61911;SDS011;49973;52.084;5.412;2023-03-16T06:18:59;5.37;;;3.77;;
61911;SDS011;49973;52.084;5.412;2023-03-16T06:21:30;4.80;;;3.57;;
61911;SDS011;49973;52.084;5.412;2023-03-16T06:24:05;4.83;;;3.43;;
61911;SDS011;49973;52.084;5.412;2023-03-16T06:26:35;5.80;;;3.43;;
61911;SDS011;49973;52.084;5.412;2023-03-16T06:29:08;6.00;;;3.37;;
61911;SDS011;49973;52.084;5.412;2023-03-16T06:31:38;10.90;;;3.20;;
61911;SDS011;49973;52.084;5.412;2023-03-16T06:34:06;5.90;;;3.93;;
61911;SDS011;49973;52.084;5.412;2023-03-16T06:36:35;4.73;;;3.00;;
61911;SDS011;49973;52.084;5.412;2023-03-16T06:39:10;6.83;;;3.20;;
61911;SDS011;49973;52.084;5.412;2023-03-16T06:41:41;7.63;;;3.50;;
61911;SDS011;49973;52.084;5.412;2023-03-16T06:44:14;6.20;;;3.53;;
61911;SDS011;49973;52.084;5.412;2023-03-16T06:46:54;8.20;;;3.57;;
61911;SDS011;49973;52.084;5.412;2023-03-16T06:49:23;6.80;;;3.57;;
61911;SDS011;49973;52.084;5.412;2023-03-16T06:51:52;13.00;;;3.50;;
61911;SDS011;49973;52.084;5.412;2023-03-16T06:54:22;8.67;;;3.13;;
61911;SDS011;49973;52.084;5.412;2023-03-16T06:56:51;6.60;;;2.83;;
61911;SDS011;49973;52.084;5.412;2023-03-16T06:59:22;5.03;;;2.97;;
61911;SDS011;49973;52.084;5.412;2023-03-16T07:01:51;3.90;;;2.83;;
61911;SDS011;49973;52.084;5.412;2023-03-16T07:04:19;5.47;;;3.27;;
61911;SDS011;49973;52.084;5.412;2023-03-16T07:06:48;3.90;;;3.00;;
61911;SDS011;49973;52.084;5.412;2023-03-16T07:09:17;6.23;;;2.90;;
61911;SDS011;49973;52.084;5.412;2023-03-16T07:11:47;5.37;;;2.60;;
61911;SDS011;49973;52.084;5.412;2023-03-16T07:14:18;6.50;;;3.00;;
61911;SDS011;49973;52.084;5.412;2023-03-16T07:16:51;4.03;;;2.60;;
61911;SDS011;49973;52.084;5.412;2023-03-16T07:19:21;6.90;;;2.70;;
61911;SDS011;49973;52.084;5.412;2023-03-16T07:21:51;6.87;;;2.93;;
61911;SDS011;49973;52.084;5.412;2023-03-16T07:24:21;7.67;;;3.27;;
61911;SDS011;49973;52.084;5.412;2023-03-16T07:26:49;3.33;;;2.67;;
61911;SDS011;49973;52.084;5.412;2023-03-16T07:29:25;9.63;;;3.33;;
61911;SDS011;49973;52.084;5.412;2023-03-16T07:31:55;4.90;;;2.83;;
61911;SDS011;49973;52.084;5.412;2023-03-16T07:34:31;6.37;;;4.23;;
61911;SDS011;49973;52.084;5.412;2023-03-16T07:37:00;5.87;;;3.20;;
61911;SDS011;49973;52.084;5.412;2023-03-16T07:39:31;7.03;;;3.47;;
61911;SDS011;49973;52.084;5.412;2023-03-16T07:42:06;6.20;;;3.17;;
61911;SDS011;49973;52.084;5.412;2023-03-16T07:44:48;5.67;;;3.33;;
61911;SDS011;49973;52.084;5.412;2023-03-16T07:47:19;7.70;;;3.53;;
61911;SDS011;49973;52.084;5.412;2023-03-16T07:49:53;5.50;;;3.40;;
61911;SDS011;49973;52.084;5.412;2023-03-16T07:52:22;3.60;;;2.73;;
61911;SDS011;49973;52.084;5.412;2023-03-16T07:54:51;7.17;;;3.77;;
61911;SDS011;49973;52.084;5.412;2023-03-16T07:57:20;8.87;;;3.40;;
61911;SDS011;49973;52.084;5.412;2023-03-16T07:59:49;4.97;;;3.27;;
61911;SDS011;49973;52.084;5.412;2023-03-16T08:02:19;12.37;;;3.77;;
61911;SDS011;49973;52.084;5.412;2023-03-16T08:04:48;6.53;;;2.97;;
61911;SDS011;49973;52.084;5.412;2023-03-16T08:07:17;9.60;;;3.30;;
61911;SDS011;49973;52.084;5.412;2023-03-16T08:10:00;9.83;;;3.50;;
61911;SDS011;49973;52.084;5.412;2023-03-16T08:12:38;7.23;;;3.43;;
61911;SDS011;49973;52.084;5.412;2023-03-16T08:15:08;6.73;;;2.77;;
61911;SDS011;49973;52.084;5.412;2023-03-16T08:17:39;5.57;;;3.40;;
61911;SDS011;49973;52.084;5.412;2023-03-16T08:20:13;4.63;;;3.33;;
61911;SDS011;49973;52.084;5.412;2023-03-16T08:22:43;6.57;;;3.20;;
61911;SDS011;49973;52.084;5.412;2023-03-16T08:25:15;8.23;;;3.30;;
61911;SDS011;49973;52.084;5.412;2023-03-16T08:27:53;7.47;;;2.87;;
61911;SDS011;49973;52.084;5.412;2023-03-16T08:30:24;4.67;;;3.00;;
61911;SDS011;49973;52.084;5.412;2023-03-16T08:33:11;8.23;;;3.60;;
61911;SDS011;49973;52.084;5.412;2023-03-16T08:35:40;4.87;;;3.53;;
61911;SDS011;49973;52.084;5.412;2023-03-16T08:38:11;6.20;;;3.30;;
61911;SDS011;49973;52.084;5.412;2023-03-16T08:40:42;5.73;;;3.03;;
61911;SDS011;49973;52.084;5.412;2023-03-16T08:43:15;5.50;;;3.10;;
61911;SDS011;49973;52.084;5.412;2023-03-16T08:45:45;6.20;;;3.27;;
61911;SDS011;49973;52.084;5.412;2023-03-16T08:48:18;6.50;;;2.80;;
61911;SDS011;49973;52.084;5.412;2023-03-16T08:50:49;3.70;;;2.50;;
61911;SDS011;49973;52.084;5.412;2023-03-16T08:53:17;4.13;;;2.57;;
61911;SDS011;49973;52.084;5.412;2023-03-16T08:55:46;5.23;;;2.63;;
61911;SDS011;49973;52.084;5.412;2023-03-16T08:58:15;4.23;;;2.80;;
61911;SDS011;49973;52.084;5.412;2023-03-16T09:00:44;6.37;;;3.13;;
61911;SDS011;49973;52.084;5.412;2023-03-16T09:03:15;4.70;;;2.80;;
61911;SDS011;49973;52.084;5.412;2023-03-16T09:05:45;6.00;;;3.53;;
61911;SDS011;49973;52.084;5.412;2023-03-16T09:08:13;6.97;;;3.00;;
61911;SDS011;49973;52.084;5.412;2023-03-16T09:10:42;5.57;;;3.07;;
61911;SDS011;49973;52.084;5.412;2023-03-16T09:13:11;5.80;;;3.03;;
61911;SDS011;49973;52.084;5.412;2023-03-16T09:15:40;5.03;;;3.20;;
61911;SDS011;49973;52.084;5.412;2023-03-16T09:18:08;6.10;;;3.30;;
61911;SDS011;49973;52.084;5.412;2023-03-16T09:20:37;7.87;;;3.20;;
61911;SDS011;49973;52.084;5.412;2023-03-16T09:23:08;5.90;;;2.87;;
61911;SDS011;49973;52.084;5.412;2023-03-16T09:25:36;4.97;;;2.87;;
61911;SDS011;49973;52.084;5.412;2023-03-16T09:28:05;7.77;;;3.20;;
61911;SDS011;49973;52.084;5.412;2023-03-16T09:30:34;4.33;;;2.90;;
61911;SDS011;49973;52.084;5.412;2023-03-16T09:33:03;2.57;;;2.30;;
61911;SDS011;49973;52.084;5.412;2023-03-16T09:35:33;3.57;;;2.43;;
61911;SDS011;49973;52.084;5.412;2023-03-16T09:38:02;3.13;;;2.80;;
61911;SDS011;49973;52.084;5.412;2023-03-16T09:40:34;3.13;;;2.67;;
61911;SDS011;49973;52.084;5.412;2023-03-16T09:43:09;3.47;;;2.37;;
61911;SDS011;49973;52.084;5.412;2023-03-16T09:45:46;5.50;;;2.93;;
61911;SDS011;49973;52.084;5.412;2023-03-16T09:48:20;7.37;;;2.90;;
61911;SDS011;49973;52.084;5.412;2023-03-16T09:50:50;5.37;;;3.33;;
61911;SDS011;49973;52.084;5.412;2023-03-16T09:53:23;9.53;;;2.87;;
61911;SDS011;49973;52.084;5.412;2023-03-16T09:55:59;8.13;;;3.30;;
61911;SDS011;49973;52.084;5.412;2023-03-16T09:58:30;4.37;;;3.27;;
61911;SDS011;49973;52.084;5.412;2023-03-16T10:01:02;4.37;;;2.50;;
61911;SDS011;49973;52.084;5.412;2023-03-16T10:03:46;4.70;;;2.73;;
61911;SDS011;49973;52.084;5.412;2023-03-16T10:06:35;5.63;;;2.77;;
61911;SDS011;49973;52.084;5.412;2023-03-16T10:09:16;4.00;;;2.77;;
61911;SDS011;49973;52.084;5.412;2023-03-16T10:11:55;4.33;;;2.63;;
61911;SDS011;49973;52.084;5.412;2023-03-16T10:14:26;5.67;;;2.77;;
61911;SDS011;49973;52.084;5.412;2023-03-16T10:17:00;4.23;;;2.43;;
61911;SDS011;49973;52.084;5.412;2023-03-16T10:19:33;5.80;;;2.63;;
61911;SDS011;49973;52.084;5.412;2023-03-16T10:22:10;7.13;;;2.00;;
61911;SDS011;49973;52.084;5.412;2023-03-16T10:24:47;4.63;;;2.33;;
61911;SDS011;49973;52.084;5.412;2023-03-16T10:27:29;5.67;;;2.50;;
61911;SDS011;49973;52.084;5.412;2023-03-16T10:29:58;6.97;;;2.30;;
61911;SDS011;49973;52.084;5.412;2023-03-16T10:32:29;6.33;;;2.10;;
61911;SDS011;49973;52.084;5.412;2023-03-16T10:35:01;3.93;;;2.40;;
61911;SDS011;49973;52.084;5.412;2023-03-16T10:37:34;4.70;;;2.43;;
61911;SDS011;49973;52.084;5.412;2023-03-16T10:40:05;7.93;;;2.40;;
61911;SDS011;49973;52.084;5.412;2023-03-16T10:42:39;4.60;;;2.03;;
61911;SDS011;49973;52.084;5.412;2023-03-16T10:45:16;3.13;;;2.50;;
61911;SDS011;49973;52.084;5.412;2023-03-16T10:47:50;4.67;;;2.33;;
61911;SDS011;49973;52.084;5.412;2023-03-16T10:50:22;9.50;;;2.77;;
61911;SDS011;49973;52.084;5.412;2023-03-16T10:52:53;4.43;;;2.40;;
61911;SDS011;49973;52.084;5.412;2023-03-16T10:55:26;6.43;;;3.17;;
61911;SDS011;49973;52.084;5.412;2023-03-16T10:57:58;4.60;;;2.60;;
61911;SDS011;49973;52.084;5.412;2023-03-16T11:00:28;4.37;;;2.20;;
61911;SDS011;49973;52.084;5.412;2023-03-16T11:03:11;4.97;;;2.17;;
61911;SDS011;49973;52.084;5.412;2023-03-16T11:05:55;8.90;;;2.03;;
61911;SDS011;49973;52.084;5.412;2023-03-16T11:08:26;4.70;;;2.33;;
61911;SDS011;49973;52.084;5.412;2023-03-16T11:10:59;3.00;;;2.27;;
61911;SDS011;49973;52.084;5.412;2023-03-16T11:13:42;3.07;;;1.80;;
61911;SDS011;49973;52.084;5.412;2023-03-16T11:16:23;8.40;;;1.87;;
61911;SDS011;49973;52.084;5.412;2023-03-16T11:18:56;3.57;;;2.00;;
61911;SDS011;49973;52.084;5.412;2023-03-16T11:21:36;3.80;;;2.00;;
61911;SDS011;49973;52.084;5.412;2023-03-16T11:24:09;4.77;;;2.00;;
61911;SDS011;49973;52.084;5.412;2023-03-16T11:26:54;2.63;;;2.23;;
61911;SDS011;49973;52.084;5.412;2023-03-16T11:29:27;3.20;;;1.87;;
61911;SDS011;49973;52.084;5.412;2023-03-16T11:32:09;8.23;;;2.27;;
61911;SDS011;49973;52.084;5.412;2023-03-16T11:34:41;3.10;;;2.10;;
61911;SDS011;49973;52.084;5.412;2023-03-16T11:37:13;3.67;;;1.93;;
61911;SDS011;49973;52.084;5.412;2023-03-16T11:39:51;11.03;;;2.20;;
61911;SDS011;49973;52.084;5.412;2023-03-16T11:42:28;2.07;;;1.87;;
61911;SDS011;49973;52.084;5.412;2023-03-16T11:45:09;4.67;;;2.20;;
61911;SDS011;49973;52.084;5.412;2023-03-16T11:47:54;3.33;;;1.73;;
61911;SDS011;49973;52.084;5.412;2023-03-16T11:50:42;2.83;;;1.70;;
61911;SDS011;49973;52.084;5.412;2023-03-16T11:53:23;4.07;;;2.43;;
61911;SDS011;49973;52.084;5.412;2023-03-16T11:56:02;5.47;;;2.37;;
61911;SDS011;49973;52.084;5.412;2023-03-16T11:58:43;5.77;;;2.10;;
61911;SDS011;49973;52.084;5.412;2023-03-16T12:01:28;4.70;;;1.70;;
61911;SDS011;49973;52.084;5.412;2023-03-16T12:04:32;4.73;;;2.10;;
61911;SDS011;49973;52.084;5.412;2023-03-16T12:07:13;2.17;;;1.70;;
61911;SDS011;49973;52.084;5.412;2023-03-16T12:09:59;2.93;;;2.13;;
61911;SDS011;49973;52.084;5.412;2023-03-16T12:12:39;4.80;;;2.07;;
61911;SDS011;49973;52.084;5.412;2023-03-16T12:15:18;5.33;;;2.00;;
61911;SDS011;49973;52.084;5.412;2023-03-16T12:17:58;4.43;;;2.03;;
61911;SDS011;49973;52.084;5.412;2023-03-16T12:20:33;2.57;;;1.80;;
61911;SDS011;49973;52.084;5.412;2023-03-16T12:23:09;4.33;;;1.60;;
61911;SDS011;49973;52.084;5.412;2023-03-16T12:25:42;3.97;;;2.20;;
61911;SDS011;49973;52.084;5.412;2023-03-16T12:28:17;10.87;;;1.73;;
61911;SDS011;49973;52.084;5.412;2023-03-16T12:30:52;2.10;;;1.60;;
61911;SDS011;49973;52.084;5.412;2023-03-16T12:33:33;4.80;;;2.33;;
61911;SDS011;49973;52.084;5.412;2023-03-16T12:36:21;4.27;;;1.80;;
61911;SDS011;49973;52.084;5.412;2023-03-16T12:39:05;2.90;;;1.50;;
61911;SDS011;49973;52.084;5.412;2023-03-16T12:41:37;1.63;;;1.37;;
61911;SDS011;49973;52.084;5.412;2023-03-16T12:44:16;2.77;;;1.30;;
61911;SDS011;49973;52.084;5.412;2023-03-16T12:46:48;2.30;;;1.73;;
61911;SDS011;49973;52.084;5.412;2023-03-16T12:49:26;2.90;;;1.90;;
61911;SDS011;49973;52.084;5.412;2023-03-16T12:52:00;4.40;;;1.47;;
61911;SDS011;49973;52.084;5.412;2023-03-16T12:54:30;2.40;;;1.63;;
61911;SDS011;49973;52.084;5.412;2023-03-16T12:56:59;2.20;;;1.50;;
61911;SDS011;49973;52.084;5.412;2023-03-16T12:59:37;3.50;;;1.67;;
61911;SDS011;49973;52.084;5.412;2023-03-16T13:02:08;1.93;;;1.30;;
61911;SDS011;49973;52.084;5.412;2023-03-16T13:04:44;3.40;;;1.57;;
61911;SDS011;49973;52.084;5.412;2023-03-16T13:07:18;2.27;;;1.33;;
61911;SDS011;49973;52.084;5.412;2023-03-16T13:09:50;2.27;;;1.27;;
61911;SDS011;49973;52.084;5.412;2023-03-16T13:12:24;4.23;;;1.30;;
61911;SDS011;49973;52.084;5.412;2023-03-16T13:14:53;3.63;;;1.57;;
61911;SDS011;49973;52.084;5.412;2023-03-16T13:17:23;1.73;;;1.30;;
61911;SDS011;49973;52.084;5.412;2023-03-16T13:20:04;3.47;;;1.43;;
61911;SDS011;49973;52.084;5.412;2023-03-16T13:23:07;1.47;;;1.30;;
61911;SDS011;49973;52.084;5.412;2023-03-16T13:25:57;3.57;;;1.67;;
61911;SDS011;49973;52.084;5.412;2023-03-16T13:28:37;4.87;;;1.30;;
61911;SDS011;49973;52.084;5.412;2023-03-16T13:31:18;8.63;;;1.53;;
61911;SDS011;49973;52.084;5.412;2023-03-16T13:33:52;1.50;;;1.10;;
61911;SDS011;49973;52.084;5.412;2023-03-16T13:36:27;3.13;;;1.20;;
61911;SDS011;49973;52.084;5.412;2023-03-16T13:39:02;6.53;;;1.40;;
61911;SDS011;49973;52.084;5.412;2023-03-16T13:41:33;7.43;;;1.20;;
61911;SDS011;49973;52.084;5.412;2023-03-16T13:44:03;1.90;;;1.33;;
61911;SDS011;49973;52.084;5.412;2023-03-16T13:46:31;2.47;;;1.17;;
61911;SDS011;49973;52.084;5.412;2023-03-16T13:49:00;2.70;;;1.00;;
61911;SDS011;49973;52.084;5.412;2023-03-16T13:51:32;1.67;;;1.10;;
61911;SDS011;49973;52.084;5.412;2023-03-16T13:54:03;1.90;;;1.00;;
61911;SDS011;49973;52.084;5.412;2023-03-16T13:56:42;4.73;;;1.30;;
61911;SDS011;49973;52.084;5.412;2023-03-16T13:59:11;5.33;;;1.23;;
61911;SDS011;49973;52.084;5.412;2023-03-16T14:01:41;3.63;;;1.10;;
61911;SDS011;49973;52.084;5.412;2023-03-16T14:04:11;1.10;;;0.93;;
61911;SDS011;49973;52.084;5.412;2023-03-16T14:06:52;1.33;;;0.87;;
61911;SDS011;49973;52.084;5.412;2023-03-16T14:09:23;2.87;;;0.90;;
61911;SDS011;49973;52.084;5.412;2023-03-16T14:11:55;2.83;;;0.90;;
61911;SDS011;49973;52.084;5.412;2023-03-16T14:14:26;2.97;;;1.23;;
61911;SDS011;49973;52.084;5.412;2023-03-16T14:16:59;4.20;;;1.30;;
61911;SDS011;49973;52.084;5.412;2023-03-16T14:19:40;1.13;;;1.00;;
61911;SDS011;49973;52.084;5.412;2023-03-16T14:22:14;3.63;;;1.23;;
61911;SDS011;49973;52.084;5.412;2023-03-16T14:24:45;3.87;;;1.47;;
61911;SDS011;49973;52.084;5.412;2023-03-16T14:27:23;1.20;;;1.10;;
61911;SDS011;49973;52.084;5.412;2023-03-16T14:29:58;3.47;;;1.47;;
61911;SDS011;49973;52.084;5.412;2023-03-16T14:32:29;2.73;;;0.90;;
61911;SDS011;49973;52.084;5.412;2023-03-16T14:35:02;3.33;;;1.20;;
61911;SDS011;49973;52.084;5.412;2023-03-16T14:37:40;2.17;;;1.10;;
61911;SDS011;49973;52.084;5.412;2023-03-16T14:40:20;1.37;;;0.90;;
61911;SDS011;49973;52.084;5.412;2023-03-16T14:42:51;5.70;;;1.23;;
61911;SDS011;49973;52.084;5.412;2023-03-16T14:45:21;1.60;;;1.17;;
61911;SDS011;49973;52.084;5.412;2023-03-16T14:47:53;1.43;;;1.03;;
61911;SDS011;49973;52.084;5.412;2023-03-16T14:50:30;2.97;;;1.17;;
61911;SDS011;49973;52.084;5.412;2023-03-16T14:53:02;2.30;;;1.00;;
61911;SDS011;49973;52.084;5.412;2023-03-16T14:55:32;2.57;;;1.10;;
61911;SDS011;49973;52.084;5.412;2023-03-16T14:58:02;4.53;;;1.50;;
61911;SDS011;49973;52.084;5.412;2023-03-16T15:00:31;2.80;;;1.17;;
61911;SDS011;49973;52.084;5.412;2023-03-16T15:03:16;2.27;;;1.20;;
61911;SDS011;49973;52.084;5.412;2023-03-16T15:05:45;2.20;;;1.30;;
61911;SDS011;49973;52.084;5.412;2023-03-16T15:08:18;6.07;;;1.27;;
61911;SDS011;49973;52.084;5.412;2023-03-16T15:10:52;7.03;;;1.20;;
61911;SDS011;49973;52.084;5.412;2023-03-16T15:13:22;2.70;;;1.10;;
61911;SDS011;49973;52.084;5.412;2023-03-16T15:16:19;1.83;;;0.83;;
61911;SDS011;49973;52.084;5.412;2023-03-16T15:18:48;1.80;;;1.20;;
61911;SDS011;49973;52.084;5.412;2023-03-16T15:21:19;3.03;;;1.33;;
61911;SDS011;49973;52.084;5.412;2023-03-16T15:23:53;1.53;;;1.00;;